Time;durP1;ratioP1;P1;durP2;ratioP2;P2;SDS_P1;SDS_P2;PMS_P1;PMS_P2;Temp;Humidity;BMP_temperature;BMP_pressure;BME280_temperature;BME280_humidity;BME280_pressure;Samples;Min_cycle;Max_cycle;Signal;HPM_P1;HPM_P2
2021/10/18 00:01:12;;;;;;;32.97;15.93;;;7.10;98.00;;;;;;6223023;23;20001;-68
2021/10/18 00:03:37;;;;;;;34.28;17.70;;;7.10;98.00;;;;;;6249848;23;20004;-68
2021/10/18 00:06:03;;;;;;;29.50;15.10;;;7.00;98.00;;;;;;6249526;23;20027;-68
2021/10/18 00:08:30;;;;;;;34.60;16.63;;;6.90;98.00;;;;;;6250085;23;20004;-68
2021/10/18 00:10:56;;;;;;;34.08;15.68;;;6.80;98.00;;;;;;6249988;23;20004;-68
2021/10/18 00:13:22;;;;;;;34.72;15.98;;;6.70;98.00;;;;;;6221846;23;20012;-69
2021/10/18 00:15:48;;;;;;;34.05;17.50;;;6.60;98.00;;;;;;6249499;23;20366;-68
2021/10/18 00:18:15;;;;;;;30.50;15.35;;;6.50;98.00;;;;;;6249424;23;20036;-68
2021/10/18 00:20:41;;;;;;;31.25;15.95;;;6.40;97.90;;;;;;6249598;23;20007;-68
2021/10/18 00:23:09;;;;;;;31.38;16.33;;;6.30;97.90;;;;;;6223567;23;20000;-68
2021/10/18 00:25:35;;;;;;;29.23;15.10;;;6.30;97.70;;;;;;6249632;23;20087;-68
2021/10/18 00:28:01;;;;;;;37.05;17.05;;;6.20;97.40;;;;;;6248439;23;20362;-68
2021/10/18 00:30:27;;;;;;;32.90;16.65;;;6.20;97.30;;;;;;6223171;23;20002;-68
2021/10/18 00:32:53;;;;;;;28.95;14.68;;;6.20;97.10;;;;;;6249712;23;20007;-68
2021/10/18 00:35:19;;;;;;;34.42;16.25;;;6.30;97.00;;;;;;6222212;23;20354;-68
2021/10/18 00:37:45;;;;;;;32.75;16.05;;;6.30;97.40;;;;;;6249497;23;20024;-68
2021/10/18 00:40:12;;;;;;;38.78;17.35;;;6.20;97.20;;;;;;6249668;23;20073;-68
2021/10/18 00:42:38;;;;;;;31.67;15.52;;;6.20;97.00;;;;;;6247839;23;20099;-67
2021/10/18 00:45:05;;;;;;;34.80;16.25;;;6.20;97.10;;;;;;6249537;23;20083;-67
2021/10/18 00:47:31;;;;;;;31.65;15.95;;;6.10;96.90;;;;;;6249335;23;20004;-67
2021/10/18 00:49:57;;;;;;;32.13;15.63;;;6.20;96.70;;;;;;6249761;23;20000;-67
2021/10/18 00:52:25;;;;;;;34.00;16.15;;;6.20;96.30;;;;;;6248716;23;20054;-67
2021/10/18 00:54:53;;;;;;;32.65;16.95;;;6.30;96.60;;;;;;6248857;23;20057;-68
2021/10/18 00:57:19;;;;;;;32.08;15.57;;;6.20;96.70;;;;;;6248036;23;20369;-67
2021/10/18 00:59:46;;;;;;;27.30;14.35;;;6.30;96.80;;;;;;6222825;23;20015;-67
2021/10/18 01:02:13;;;;;;;27.13;14.07;;;6.30;96.70;;;;;;6249395;23;20376;-67
2021/10/18 01:04:39;;;;;;;33.58;15.20;;;6.40;97.00;;;;;;6249681;23;20071;-68
2021/10/18 01:07:06;;;;;;;33.80;15.95;;;6.40;97.40;;;;;;6222298;23;20008;-67
2021/10/18 01:09:32;;;;;;;36.70;16.55;;;6.40;97.60;;;;;;6249317;23;20007;-67
2021/10/18 01:11:57;;;;;;;32.10;16.10;;;6.40;97.40;;;;;;6249339;23;20008;-67
2021/10/18 01:14:24;;;;;;;31.95;17.27;;;6.50;97.60;;;;;;6247675;23;20000;-67
2021/10/18 01:16:50;;;;;;;31.98;16.30;;;6.60;97.60;;;;;;6249121;23;20094;-67
2021/10/18 01:19:21;;;;;;;30.92;15.07;;;6.70;97.60;;;;;;6222824;23;20083;-67
2021/10/18 01:21:48;;;;;;;29.23;14.93;;;6.80;98.00;;;;;;6249064;23;20063;-67
2021/10/18 01:24:14;;;;;;;28.55;14.70;;;6.80;97.90;;;;;;6249253;23;20099;-67
2021/10/18 01:26:41;;;;;;;31.02;14.05;;;6.80;98.00;;;;;;6222563;23;20007;-67
2021/10/18 01:29:07;;;;;;;31.38;14.02;;;6.80;98.00;;;;;;6247918;23;20118;-67
2021/10/18 01:31:34;;;;;;;33.00;14.43;;;6.80;98.00;;;;;;6248912;23;20027;-67
2021/10/18 01:33:59;;;;;;;28.58;14.20;;;6.80;98.00;;;;;;6247661;23;20493;-69
2021/10/18 01:36:25;;;;;;;25.20;13.70;;;6.90;98.00;;;;;;6249031;23;20008;-68
2021/10/18 01:38:51;;;;;;;25.48;13.07;;;6.80;98.00;;;;;;6249010;23;20004;-68
2021/10/18 01:41:17;;;;;;;27.30;13.38;;;6.90;98.00;;;;;;6204521;23;20044;-67
2021/10/18 01:43:43;;;;;;;26.27;13.32;;;6.90;98.00;;;;;;6185102;23;20009;-67
2021/10/18 01:46:09;;;;;;;28.55;13.55;;;6.80;98.00;;;;;;6188171;23;20005;-68
2021/10/18 01:48:35;;;;;;;24.63;13.45;;;6.80;98.00;;;;;;6188593;23;20066;-67
2021/10/18 01:51:01;;;;;;;28.50;13.57;;;6.80;98.00;;;;;;6188437;23;20005;-67
2021/10/18 01:53:27;;;;;;;25.38;14.23;;;6.90;98.00;;;;;;6187208;23;20012;-68
2021/10/18 01:55:53;;;;;;;25.23;13.20;;;7.00;98.00;;;;;;6188219;23;20005;-67
2021/10/18 01:58:19;;;;;;;26.73;14.13;;;7.00;98.00;;;;;;6186977;23;19997;-67
2021/10/18 02:00:45;;;;;;;26.17;13.90;;;7.10;98.00;;;;;;6188089;23;20001;-67
2021/10/18 02:03:11;;;;;;;23.77;12.85;;;7.20;98.00;;;;;;6188557;23;20072;-67
2021/10/18 02:05:37;;;;;;;25.63;13.25;;;7.20;98.00;;;;;;6188262;23;20303;-68
2021/10/18 02:08:04;;;;;;;24.40;13.38;;;7.20;98.00;;;;;;6188524;23;20498;-67
2021/10/18 02:10:30;;;;;;;27.23;14.38;;;7.20;98.00;;;;;;6188180;23;20353;-67
2021/10/18 02:12:57;;;;;;;23.83;13.48;;;7.20;98.00;;;;;;6187165;23;20008;-67
2021/10/18 02:15:23;;;;;;;28.33;13.73;;;7.20;98.00;;;;;;6186410;23;20009;-68
2021/10/18 02:17:49;;;;;;;26.38;13.95;;;7.20;98.00;;;;;;6188522;23;20012;-68
2021/10/18 02:20:16;;;;;;;28.73;14.05;;;7.20;98.00;;;;;;6188356;23;20032;-68
2021/10/18 02:22:42;;;;;;;25.58;13.73;;;7.20;98.00;;;;;;6188258;23;20024;-68
2021/10/18 02:25:10;;;;;;;28.20;14.23;;;7.20;98.00;;;;;;6188465;23;20008;-67
2021/10/18 02:27:36;;;;;;;28.83;13.85;;;7.30;98.00;;;;;;6185488;23;20005;-68
2021/10/18 02:30:04;;;;;;;28.83;13.80;;;7.30;98.00;;;;;;6188514;23;20005;-68
2021/10/18 02:32:30;;;;;;;28.70;13.90;;;7.30;98.00;;;;;;6188268;23;20004;-68
2021/10/18 02:34:56;;;;;;;27.92;13.23;;;7.30;98.00;;;;;;6186592;23;20040;-68
2021/10/18 02:37:22;;;;;;;27.65;14.27;;;7.30;98.00;;;;;;6188413;23;19997;-67
2021/10/18 02:39:48;;;;;;;22.40;13.25;;;7.40;98.00;;;;;;6188547;23;20359;-67
2021/10/18 02:42:15;;;;;;;26.95;14.65;;;7.40;98.00;;;;;;6235756;23;20087;-68
2021/10/18 02:44:41;;;;;;;28.75;16.35;;;7.40;98.00;;;;;;6248334;23;20004;-68
2021/10/18 02:47:08;;;;;;;42.42;18.92;;;7.50;98.00;;;;;;6248414;23;20031;-68
2021/10/18 02:49:35;;;;;;;39.85;19.90;;;7.50;98.00;;;;;;6248659;23;20008;-67
2021/10/18 02:52:01;;;;;;;35.40;19.10;;;7.50;98.00;;;;;;6248482;23;20000;-68
2021/10/18 02:54:28;;;;;;;39.15;17.90;;;7.50;98.00;;;;;;6248385;23;20027;-68
2021/10/18 02:56:55;;;;;;;32.58;16.60;;;7.40;98.00;;;;;;6221836;23;20062;-68
2021/10/18 02:59:21;;;;;;;32.35;17.50;;;7.40;98.00;;;;;;6247051;23;20012;-68
2021/10/18 03:01:47;;;;;;;36.47;18.73;;;7.40;98.00;;;;;;6248509;23;19996;-68
2021/10/18 03:04:13;;;;;;;42.38;20.73;;;7.40;98.00;;;;;;6248547;23;20266;-68
2021/10/18 03:06:39;;;;;;;37.40;19.38;;;7.40;98.00;;;;;;6222055;23;20012;-68
2021/10/18 03:09:06;;;;;;;41.13;22.52;;;7.40;98.00;;;;;;6222444;23;20008;-67
2021/10/18 03:11:32;;;;;;;40.03;20.88;;;7.40;98.00;;;;;;6248350;23;20004;-68
2021/10/18 03:13:59;;;;;;;42.30;21.38;;;7.40;98.00;;;;;;6246786;23;20008;-67
2021/10/18 03:16:25;;;;;;;37.08;19.35;;;7.40;98.00;;;;;;6249677;23;20011;-67
2021/10/18 03:18:51;;;;;;;41.08;21.27;;;7.30;98.00;;;;;;6250589;23;20051;-67
2021/10/18 03:21:17;;;;;;;45.05;21.38;;;7.30;98.00;;;;;;6223406;23;20079;-67
2021/10/18 03:23:44;;;;;;;40.55;20.52;;;7.40;98.00;;;;;;6250489;23;20012;-68
2021/10/18 03:26:10;;;;;;;43.40;21.05;;;7.40;98.00;;;;;;6250245;23;19996;-68
2021/10/18 03:28:36;;;;;;;42.42;21.40;;;7.40;98.00;;;;;;6222208;23;20008;-68
2021/10/18 03:31:02;;;;;;;39.67;19.88;;;7.40;98.00;;;;;;6250279;23;20034;-68
2021/10/18 03:33:39;;;;;;;35.17;19.17;;;7.40;98.00;;;;;;6223601;23;20012;-67
2021/10/18 03:36:06;;;;;;;33.97;19.15;;;7.40;98.00;;;;;;6249883;23;20000;-68
2021/10/18 03:38:32;;;;;;;39.15;20.02;;;7.40;98.00;;;;;;6250299;23;19997;-67
2021/10/18 03:40:59;;;;;;;43.30;21.80;;;7.40;98.00;;;;;;6249580;23;20046;-67
2021/10/18 03:43:25;;;;;;;39.50;19.65;;;7.40;98.00;;;;;;6248458;23;20617;-68
2021/10/18 03:45:51;;;;;;;40.17;20.33;;;7.40;98.00;;;;;;6249804;23;20079;-68
2021/10/18 03:48:17;;;;;;;42.05;20.13;;;7.40;98.00;;;;;;6249866;23;20000;-68
2021/10/18 03:50:43;;;;;;;37.40;20.65;;;7.30;98.00;;;;;;6249948;23;20012;-68
2021/10/18 03:53:10;;;;;;;42.92;21.70;;;7.40;98.00;;;;;;6249361;23;20004;-68
2021/10/18 03:55:36;;;;;;;38.70;20.40;;;7.40;98.00;;;;;;6249794;23;20266;-68
2021/10/18 03:58:03;;;;;;;46.97;22.95;;;7.40;98.00;;;;;;6222050;23;20008;-68
2021/10/18 04:00:30;;;;;;;42.95;20.80;;;7.40;98.00;;;;;;6223196;23;20008;-67
2021/10/18 04:02:56;;;;;;;43.83;21.65;;;7.40;98.00;;;;;;6223146;23;20038;-68
2021/10/18 04:05:22;;;;;;;46.88;23.30;;;7.40;98.00;;;;;;6250182;23;20081;-68
2021/10/18 04:07:48;;;;;;;42.53;23.45;;;7.40;98.00;;;;;;6249853;23;20014;-67
2021/10/18 04:10:17;;;;;;;39.03;22.00;;;7.40;98.00;;;;;;6250299;23;20004;-67
2021/10/18 04:12:44;;;;;;;44.13;23.95;;;7.40;98.00;;;;;;6248226;23;20008;-68
2021/10/18 04:15:11;;;;;;;44.75;23.10;;;7.40;98.00;;;;;;6249540;23;20035;-67
2021/10/18 04:17:37;;;;;;;39.03;22.02;;;7.50;98.00;;;;;;6222827;23;20065;-68
2021/10/18 04:20:05;;;;;;;43.58;22.75;;;7.50;98.00;;;;;;6249457;23;20039;-68
2021/10/18 04:22:31;;;;;;;48.33;23.38;;;7.40;98.00;;;;;;6222944;23;20000;-68
2021/10/18 04:24:57;;;;;;;45.13;22.00;;;7.40;98.00;;;;;;6249592;23;20103;-67
2021/10/18 04:27:25;;;;;;;46.83;22.10;;;7.30;98.00;;;;;;6221678;23;20008;-69
2021/10/18 04:29:54;;;;;;;50.67;24.60;;;7.20;98.00;;;;;;6249657;23;20398;-72
2021/10/18 04:32:19;;;;;;;44.90;22.65;;;7.20;98.00;;;;;;6223611;23;20008;-72
2021/10/18 04:34:45;;;;;;;38.83;21.27;;;7.20;98.00;;;;;;6250326;23;20426;-72
2021/10/18 04:37:11;;;;;;;46.28;24.33;;;7.20;98.00;;;;;;6249633;23;20265;-70
2021/10/18 04:39:37;;;;;;;45.13;21.42;;;7.20;98.00;;;;;;6250081;23;20050;-70
2021/10/18 04:42:03;;;;;;;49.15;21.67;;;7.20;98.00;;;;;;6248926;23;20013;-71
2021/10/18 04:44:29;;;;;;;47.42;23.70;;;7.20;98.00;;;;;;6248743;23;20004;-71
2021/10/18 04:46:54;;;;;;;36.35;20.73;;;7.10;98.00;;;;;;6249387;23;20004;-71
2021/10/18 04:49:22;;;;;;;37.63;20.75;;;7.20;98.00;;;;;;6249627;23;20357;-71
2021/10/18 04:51:48;;;;;;;35.28;19.52;;;7.10;98.00;;;;;;6248042;23;20026;-71
2021/10/18 04:54:16;;;;;;;36.83;19.52;;;7.20;98.00;;;;;;6248852;23;20083;-71
2021/10/18 04:56:42;;;;;;;34.53;18.42;;;7.20;98.00;;;;;;6249464;23;20000;-71
2021/10/18 04:59:08;;;;;;;35.45;19.52;;;7.20;98.00;;;;;;6248413;23;19997;-70
2021/10/18 05:01:33;;;;;;;36.50;18.55;;;7.10;98.00;;;;;;6248824;23;20011;-71
2021/10/18 05:03:59;;;;;;;36.00;19.13;;;7.20;98.00;;;;;;6222979;23;20008;-71
2021/10/18 05:06:24;;;;;;;37.70;19.25;;;7.20;98.00;;;;;;6249536;23;20008;-70
2021/10/18 05:08:51;;;;;;;39.85;22.02;;;7.10;98.00;;;;;;6249180;23;20004;-70
2021/10/18 05:11:17;;;;;;;35.92;18.90;;;7.10;98.00;;;;;;6248361;23;20004;-70
2021/10/18 05:13:42;;;;;;;34.80;17.15;;;7.00;98.00;;;;;;6248060;23;20377;-69
2021/10/18 05:16:08;;;;;;;41.78;18.42;;;7.00;98.00;;;;;;6249577;23;20072;-70
2021/10/18 05:18:33;;;;;;;30.52;16.55;;;6.90;98.00;;;;;;6249620;23;20011;-71
2021/10/18 05:21:00;;;;;;;35.47;18.05;;;7.00;98.00;;;;;;6249116;23;19996;-71
2021/10/18 05:23:26;;;;;;;35.88;17.20;;;6.90;98.00;;;;;;6249181;23;20000;-71
2021/10/18 05:25:51;;;;;;;38.25;19.00;;;6.90;98.00;;;;;;6249342;23;20316;-72
2021/10/18 05:28:17;;;;;;;38.42;19.13;;;7.00;98.00;;;;;;6248167;23;20075;-71
2021/10/18 05:30:43;;;;;;;39.35;18.48;;;6.90;98.00;;;;;;6249424;23;20011;-71
2021/10/18 05:33:08;;;;;;;35.45;18.20;;;7.00;98.00;;;;;;6249423;23;20003;-70
2021/10/18 05:35:39;;;;;;;36.22;18.30;;;7.00;98.00;;;;;;6248946;23;20000;-71
2021/10/18 05:38:05;;;;;;;32.63;17.05;;;7.00;98.00;;;;;;6248378;23;19992;-69
2021/10/18 05:40:37;;;;;;;35.13;16.65;;;7.00;98.00;;;;;;6249290;23;20050;-70
2021/10/18 05:43:03;;;;;;;34.15;16.85;;;7.00;98.00;;;;;;6247247;23;20081;-70
2021/10/18 05:45:33;;;;;;;33.90;17.23;;;7.00;98.00;;;;;;6249190;23;20079;-70
2021/10/18 05:48:04;;;;;;;33.00;16.90;;;7.00;98.00;;;;;;6248859;23;20370;-70
2021/10/18 05:50:41;;;;;;;35.58;16.95;;;7.00;98.00;;;;;;6249931;23;20091;-69
2021/10/18 05:53:08;;;;;;;35.22;16.67;;;7.00;98.00;;;;;;6249319;23;20007;-70
2021/10/18 05:55:34;;;;;;;32.75;16.15;;;6.90;98.00;;;;;;6249591;23;20058;-70
2021/10/18 05:58:08;;;;;;;29.02;14.15;;;6.90;98.00;;;;;;6247969;23;19999;-70
2021/10/18 06:00:40;;;;;;;31.95;14.88;;;6.90;98.00;;;;;;6249324;23;20000;-71
2021/10/18 06:03:07;;;;;;;31.10;15.88;;;7.00;98.00;;;;;;6249621;23;20000;-72
2021/10/18 06:05:42;;;;;;;26.98;14.23;;;7.00;98.00;;;;;;6249366;23;20007;-72
2021/10/18 06:08:08;;;;;;;31.58;15.85;;;7.00;98.00;;;;;;6222589;23;20015;-72
2021/10/18 06:10:35;;;;;;;26.58;13.48;;;7.00;98.00;;;;;;6222806;23;20097;-71
2021/10/18 06:13:01;;;;;;;32.33;16.50;;;7.10;98.00;;;;;;6221301;23;20014;-71
2021/10/18 06:15:27;;;;;;;28.42;14.10;;;7.10;98.00;;;;;;6249043;23;20008;-70
2021/10/18 06:17:53;;;;;;;30.40;14.82;;;7.10;98.00;;;;;;6249260;23;20004;-71
2021/10/18 06:20:21;;;;;;;25.48;13.27;;;7.00;98.00;;;;;;6249264;23;20066;-71
2021/10/18 06:22:48;;;;;;;28.65;13.15;;;7.00;98.00;;;;;;6249647;23;19996;-71
2021/10/18 06:25:14;;;;;;;24.65;12.68;;;7.00;98.00;;;;;;6248878;23;20277;-71
2021/10/18 06:27:39;;;;;;;29.48;14.05;;;7.10;98.00;;;;;;6221369;23;20011;-71
2021/10/18 06:30:06;;;;;;;25.00;12.65;;;7.20;98.00;;;;;;6249504;23;20001;-71
2021/10/18 06:32:32;;;;;;;24.83;13.13;;;7.20;98.00;;;;;;6249225;23;19996;-71
2021/10/18 06:34:58;;;;;;;23.80;12.50;;;7.30;98.00;;;;;;6249004;23;20007;-71
2021/10/18 06:37:24;;;;;;;26.98;13.82;;;7.40;98.00;;;;;;6249300;23;20001;-71
2021/10/18 06:39:53;;;;;;;28.65;14.27;;;7.50;98.00;;;;;;6249450;23;20049;-71
2021/10/18 06:42:18;;;;;;;31.42;14.23;;;7.40;98.00;;;;;;6246744;23;20061;-72
2021/10/18 06:44:47;;;;;;;28.23;14.23;;;7.40;98.00;;;;;;6249277;23;20365;-71
2021/10/18 06:47:20;;;;;;;27.00;14.15;;;7.40;98.00;;;;;;6249248;23;20247;-70
2021/10/18 06:49:45;;;;;;;27.63;13.10;;;7.40;98.00;;;;;;6249108;23;20350;-71
2021/10/18 06:52:11;;;;;;;25.13;13.68;;;7.50;98.00;;;;;;6251169;23;20027;-71
2021/10/18 06:54:41;;;;;;;31.65;15.40;;;7.60;98.00;;;;;;6251235;23;20000;-71
2021/10/18 06:57:07;;;;;;;27.70;14.60;;;7.70;98.00;;;;;;6223396;23;19996;-70
2021/10/18 06:59:33;;;;;;;28.45;15.00;;;7.80;98.00;;;;;;6251204;23;20034;-71
2021/10/18 07:01:59;;;;;;;29.42;14.93;;;7.90;98.00;;;;;;6251301;23;20003;-71
2021/10/18 07:04:29;;;;;;;29.80;14.48;;;7.90;98.00;;;;;;6251444;23;20008;-70
2021/10/18 07:06:55;;;;;;;25.85;13.13;;;8.00;98.00;;;;;;6251234;23;20015;-71
2021/10/18 07:09:20;;;;;;;24.52;13.30;;;7.90;98.00;;;;;;6251042;23;20079;-72
2021/10/18 07:11:46;;;;;;;25.63;13.90;;;8.10;98.00;;;;;;6251161;23;20004;-71
2021/10/18 07:14:12;;;;;;;24.42;12.45;;;8.10;98.00;;;;;;6222932;23;20014;-71
2021/10/18 07:16:37;;;;;;;28.25;14.05;;;8.10;98.00;;;;;;6251053;23;19996;-71
2021/10/18 07:19:03;;;;;;;24.25;13.43;;;8.10;98.00;;;;;;6251292;23;20011;-72
2021/10/18 07:21:28;;;;;;;25.40;12.32;;;8.20;98.00;;;;;;6224551;23;20321;-71
2021/10/18 07:23:56;;;;;;;25.15;12.60;;;8.20;98.00;;;;;;6251253;23;20000;-71
2021/10/18 07:26:25;;;;;;;21.15;11.30;;;8.20;98.00;;;;;;6250921;23;20004;-71
2021/10/18 07:28:51;;;;;;;23.70;12.32;;;8.20;98.00;;;;;;6249661;23;20004;-71
2021/10/18 07:31:17;;;;;;;23.23;12.02;;;8.30;98.00;;;;;;6251066;23;20010;-71
2021/10/18 07:33:43;;;;;;;20.67;11.23;;;8.50;98.00;;;;;;6224330;23;20012;-71
2021/10/18 07:36:11;;;;;;;20.38;10.57;;;8.50;98.00;;;;;;6251132;23;20311;-71
2021/10/18 07:38:38;;;;;;;23.13;11.95;;;8.70;98.00;;;;;;6250899;23;20024;-71
2021/10/18 07:41:05;;;;;;;21.25;11.48;;;9.10;98.00;;;;;;6250499;23;20094;-71
2021/10/18 07:43:30;;;;;;;19.10;11.68;;;9.00;98.00;;;;;;6249474;23;19996;-72
2021/10/18 07:45:56;;;;;;;19.92;11.65;;;9.30;98.00;;;;;;6250801;23;20075;-71
2021/10/18 07:48:22;;;;;;;21.70;12.75;;;9.60;98.00;;;;;;6224353;23;20380;-71
2021/10/18 07:50:47;;;;;;;21.95;13.10;;;9.90;98.00;;;;;;6250931;23;20397;-70
2021/10/18 07:53:13;;;;;;;23.08;13.25;;;10.30;98.00;;;;;;6250628;23;20258;-70
2021/10/18 07:55:38;;;;;;;25.42;13.40;;;10.40;96.90;;;;;;6250762;23;20067;-70
2021/10/18 07:58:04;;;;;;;22.98;12.65;;;10.10;96.50;;;;;;6249240;23;20354;-71
2021/10/18 08:00:33;;;;;;;26.08;13.77;;;9.60;97.80;;;;;;6251020;23;20354;-71
2021/10/18 08:02:59;;;;;;;26.55;14.90;;;9.40;98.00;;;;;;6250650;23;20001;-70
2021/10/18 08:05:26;;;;;;;22.52;12.23;;;10.20;98.00;;;;;;6250791;23;20038;-71
2021/10/18 08:07:52;;;;;;;20.48;11.63;;;11.20;95.30;;;;;;6250585;23;20035;-72
2021/10/18 08:10:26;;;;;;;22.17;12.00;;;11.60;93.90;;;;;;6250431;23;20030;-71
2021/10/18 08:12:58;;;;;;;23.37;11.87;;;12.30;90.90;;;;;;6249214;23;20000;-69
2021/10/18 08:15:26;;;;;;;21.50;11.70;;;12.20;91.00;;;;;;6250703;23;20369;-70
2021/10/18 08:17:52;;;;;;;21.73;11.93;;;12.40;90.50;;;;;;6250529;23;20003;-70
2021/10/18 08:20:18;;;;;;;19.65;11.13;;;12.50;90.30;;;;;;6250600;23;20000;-72
2021/10/18 08:22:44;;;;;;;18.60;11.18;;;13.10;89.20;;;;;;6250463;23;20035;-71
2021/10/18 08:25:11;;;;;;;18.83;10.75;;;13.90;86.80;;;;;;6250394;23;19996;-70
2021/10/18 08:27:36;;;;;;;17.20;10.10;;;14.50;85.20;;;;;;6249193;23;20000;-71
2021/10/18 08:30:04;;;;;;;19.75;11.43;;;15.20;82.80;;;;;;6250493;23;20004;-71
2021/10/18 08:32:30;;;;;;;19.30;10.82;;;15.40;82.10;;;;;;6250510;23;20032;-72
2021/10/18 08:34:56;;;;;;;20.17;11.68;;;15.40;81.80;;;;;;6250214;23;20373;-72
2021/10/18 08:37:22;;;;;;;17.50;10.75;;;15.80;80.90;;;;;;6250396;23;20254;-72
2021/10/18 08:42:24;;;;;;;17.30;10.85;;;15.70;80.70;;;;;;6250351;23;20016;-71
2021/10/18 08:44:49;;;;;;;22.75;11.88;;;16.50;79.10;;;;;;6250423;23;20000;-70
2021/10/18 08:47:15;;;;;;;19.48;12.10;;;16.70;78.30;;;;;;6250324;23;20004;-70
2021/10/18 08:49:44;;;;;;;15.35;9.98;;;16.40;78.40;;;;;;6250106;23;20266;-70
2021/10/18 08:52:11;;;;;;;24.25;10.63;;;16.90;77.20;;;;;;6250534;23;20075;-70
2021/10/18 08:54:36;;;;;;;17.63;10.30;;;17.30;77.60;;;;;;6223562;23;20393;-72
2021/10/18 08:57:02;;;;;;;19.02;10.63;;;17.50;76.00;;;;;;6249312;23;19996;-71
2021/10/18 08:59:30;;;;;;;20.65;10.85;;;18.00;75.10;;;;;;6249846;23;20049;-72
2021/10/18 09:01:58;;;;;;;20.15;11.32;;;18.30;74.00;;;;;;6250211;23;20004;-72
2021/10/18 09:04:31;;;;;;;17.35;10.82;;;18.40;74.60;;;;;;6250149;23;20004;-72
2021/10/18 09:07:05;;;;;;;19.48;11.63;;;18.20;74.10;;;;;;6250145;23;20243;-72
2021/10/18 09:09:49;;;;;;;;;;;18.10;73.70;;;;;;6224012;23;20008;-71
2021/10/18 09:12:31;;;;;;;15.87;8.80;;;17.10;75.70;;;;;;6248456;23;19899;-72
2021/10/18 09:15:20;;;;;;;14.68;8.75;;;16.40;78.70;;;;;;6249868;23;20004;-72
2021/10/18 09:17:54;;;;;;;14.85;9.98;;;16.80;78.90;;;;;;6250111;23;20000;-71
2021/10/18 09:20:32;;;;;;;18.30;10.20;;;17.20;76.80;;;;;;6223476;23;20000;-72
2021/10/18 09:23:23;;;;;;;17.17;10.23;;;17.10;77.00;;;;;;6249800;23;20258;-72
2021/10/18 09:25:49;;;;;;;16.45;10.15;;;16.80;77.50;;;;;;6249998;23;20011;-71
2021/10/18 09:28:21;;;;;;;16.55;10.38;;;16.50;79.50;;;;;;6248389;23;20004;-71
2021/10/18 09:30:47;;;;;;;16.98;10.00;;;16.70;78.90;;;;;;6223204;23;20004;-70
2021/10/18 09:36:00;;;;;;;17.98;11.60;;;16.40;79.20;;;;;;6249949;23;20051;-72
2021/10/18 09:38:26;;;;;;;20.75;11.85;;;15.90;80.60;;;;;;6249685;23;20400;-71
2021/10/18 09:40:55;;;;;;;18.48;11.63;;;16.00;81.30;;;;;;6249489;23;20008;-72
2021/10/18 09:43:36;;;;;;;16.42;10.40;;;15.80;81.60;;;;;;6248223;23;20262;-72
2021/10/18 09:46:17;;;;;;;22.15;11.68;;;16.70;81.30;;;;;;6249661;23;20262;-72
2021/10/18 10:54:02;;;;;;;15.98;10.63;;;18.70;75.30;;;;;;6261666;23;20088;-69
2021/10/18 10:56:30;;;;;;;20.45;10.27;;;19.00;74.40;;;;;;6251303;23;20003;-71
2021/10/18 10:59:33;;;;;;;16.92;10.52;;;19.10;74.10;;;;;;6249682;23;20358;-71
2021/10/18 11:02:11;;;;;;;15.35;10.05;;;19.00;73.60;;;;;;6251326;23;20000;-73
2021/10/18 11:04:44;;;;;;;17.33;10.65;;;18.50;75.00;;;;;;6251493;23;20004;-71
2021/10/18 11:07:16;;;;;;;16.92;11.15;;;18.40;75.50;;;;;;6251114;23;20007;-71
2021/10/18 11:09:51;;;;;;;17.60;11.13;;;18.20;76.40;;;;;;6251262;23;20008;-71
2021/10/18 11:12:30;;;;;;;15.98;10.70;;;18.50;76.10;;;;;;6250134;23;20015;-71
2021/10/18 11:15:02;;;;;;;15.88;10.23;;;18.70;75.70;;;;;;6251103;23;20004;-71
2021/10/18 11:17:32;;;;;;;16.40;10.30;;;18.90;74.50;;;;;;6250433;23;20001;-70
2021/10/18 11:20:07;;;;;;;18.67;10.93;;;19.20;75.10;;;;;;6251081;23;20381;-71
2021/10/18 11:22:38;;;;;;;17.10;10.02;;;19.20;74.00;;;;;;6251218;23;19997;-71
2021/10/18 11:25:12;;;;;;;15.10;10.00;;;19.00;74.60;;;;;;6224962;23;20004;-70
2021/10/18 11:27:40;;;;;;;16.80;10.43;;;19.20;75.00;;;;;;6249479;23;20001;-71
2021/10/18 11:30:16;;;;;;;16.45;10.60;;;19.00;74.10;;;;;;6250945;23;20050;-70
2021/10/18 11:32:43;;;;;;;15.18;9.75;;;19.10;74.40;;;;;;6250976;23;20302;-71
2021/10/18 11:35:17;;;;;;;14.60;9.82;;;19.00;74.90;;;;;;6250995;23;20061;-71
2021/10/18 11:37:47;;;;;;;13.73;9.68;;;19.20;73.50;;;;;;6250668;23;20067;-69
2021/10/18 11:40:14;;;;;;;15.80;10.27;;;19.50;72.80;;;;;;6250630;23;20047;-69
2021/10/18 11:42:48;;;;;;;15.85;9.10;;;19.30;72.80;;;;;;6249284;23;20040;-69
2021/10/18 11:45:18;;;;;;;14.02;9.27;;;19.00;73.60;;;;;;6224119;23;20281;-68
2021/10/18 11:47:44;;;;;;;15.45;9.55;;;19.20;73.40;;;;;;6250821;23;20023;-69
2021/10/18 11:50:15;;;;;;;15.38;10.05;;;19.30;73.80;;;;;;6250863;23;20243;-71
2021/10/18 11:52:54;;;;;;;14.30;9.20;;;19.30;73.20;;;;;;6250825;23;20054;-70
2021/10/18 11:55:29;;;;;;;16.80;9.20;;;19.50;72.50;;;;;;6250617;23;20004;-71
2021/10/18 11:57:57;;;;;;;16.63;10.18;;;20.00;71.70;;;;;;6249539;23;20000;-71
2021/10/18 12:00:29;;;;;;;14.65;9.00;;;20.50;71.50;;;;;;6250543;23;20000;-72
2021/10/18 12:03:02;;;;;;;15.18;9.25;;;20.40;70.50;;;;;;6250865;23;20004;-72
2021/10/18 12:05:38;;;;;;;14.20;9.25;;;20.50;70.20;;;;;;6251009;23;20027;-72
2021/10/18 12:08:05;;;;;;;15.32;7.93;;;20.30;69.50;;;;;;6250760;23;20004;-71
2021/10/18 12:10:32;;;;;;;12.85;7.57;;;19.90;70.70;;;;;;6250639;23;20004;-71
2021/10/18 12:13:39;;;;;;;10.82;7.22;;;19.60;70.40;;;;;;6249202;23;20293;-71
2021/10/18 12:18:36;;;;;;;12.23;6.38;;;19.50;71.30;;;;;;6219818;23;20058;-70
2021/10/18 12:21:05;;;;;;;11.77;7.40;;;19.50;72.40;;;;;;6250581;23;20004;-71
2021/10/18 12:23:34;;;;;;;13.90;7.50;;;19.20;71.50;;;;;;6250673;23;20059;-72
2021/10/18 12:26:17;;;;;;;11.57;7.22;;;18.60;74.80;;;;;;6250523;23;20247;-71
2021/10/18 12:28:45;;;;;;;13.00;7.20;;;18.30;74.90;;;;;;6248693;23;20076;-70
2021/10/18 12:31:29;;;;;;;10.00;6.65;;;18.40;76.40;;;;;;6250277;23;20007;-70
2021/10/18 12:34:22;;;;;;;11.90;7.03;;;18.60;75.10;;;;;;6250005;23;20423;-72
2021/10/18 12:37:09;;;;;;;10.75;6.60;;;18.70;74.30;;;;;;6249441;23;20385;-72
2021/10/18 12:39:48;;;;;;;11.40;6.43;;;18.50;74.20;;;;;;6250013;23;19996;-71
2021/10/18 12:42:33;;;;;;;11.13;6.78;;;18.50;74.90;;;;;;6248729;23;20780;-71
2021/10/18 12:45:02;;;;;;;17.20;6.30;;;18.40;74.10;;;;;;6249639;23;20015;-72
2021/10/18 12:47:29;;;;;;;13.02;6.55;;;18.40;74.20;;;;;;6250054;23;20004;-71
2021/10/18 12:50:15;;;;;;;11.60;6.63;;;18.60;74.10;;;;;;6250163;23;20004;-72
2021/10/18 12:53:02;;;;;;;12.25;7.05;;;19.00;73.70;;;;;;6250376;23;20004;-71
2021/10/18 12:55:36;;;;;;;11.20;6.75;;;18.50;73.60;;;;;;6249960;23;20005;-71
2021/10/18 12:58:03;;;;;;;;;;;18.30;74.60;;;;;;6249032;23;20258;-70
2021/10/18 13:00:36;;;;;;;12.02;6.75;;;18.60;74.30;;;;;;6249855;23;20165;-70
2021/10/18 13:03:08;;;;;;;10.83;6.50;;;18.90;73.20;;;;;;6249630;23;20007;-71
2021/10/18 13:05:48;;;;;;;10.50;6.63;;;19.10;73.50;;;;;;6249220;23;20215;-71
2021/10/18 13:08:20;;;;;;;12.70;6.25;;;18.90;71.80;;;;;;6248881;23;20004;-71
2021/10/18 13:10:49;;;;;;;17.75;6.82;;;18.70;72.10;;;;;;6249183;23;20004;-71
2021/10/18 13:13:16;;;;;;;11.27;5.80;;;18.30;72.50;;;;;;6248340;23;20308;-71
2021/10/18 13:15:47;;;;;;;11.25;6.00;;;18.30;73.10;;;;;;6248280;23;20251;-72
2021/10/18 13:18:15;;;;;;;8.95;5.63;;;18.10;73.40;;;;;;6248052;23;20004;-70
2021/10/18 13:20:45;;;;;;;11.52;6.65;;;18.00;74.10;;;;;;6220697;23;20007;-69
2021/10/18 13:23:13;;;;;;;8.38;4.78;;;18.00;74.80;;;;;;6248618;23;20054;-70
2021/10/18 13:25:42;;;;;;;8.32;5.18;;;17.80;73.10;;;;;;6249521;23;20075;-72
2021/10/18 13:28:09;;;;;;;9.13;4.80;;;17.50;74.00;;;;;;6247746;23;20050;-70
2021/10/18 13:30:37;;;;;;;8.40;5.50;;;17.40;74.40;;;;;;6249233;23;20247;-71
2021/10/18 13:33:04;;;;;;;8.82;5.00;;;17.10;75.40;;;;;;6248770;23;20011;-71
2021/10/18 13:35:30;;;;;;;8.07;4.53;;;16.90;76.30;;;;;;6249088;23;20000;-71
2021/10/18 13:37:57;;;;;;;8.90;5.20;;;16.70;77.80;;;;;;6248913;23;20265;-71
2021/10/18 13:40:25;;;;;;;10.07;5.80;;;16.80;77.50;;;;;;6248383;23;20135;-71
2021/10/18 13:42:51;;;;;;;8.68;4.50;;;16.80;77.80;;;;;;6247926;23;20062;-71
2021/10/18 13:45:20;;;;;;;8.30;5.03;;;16.90;78.30;;;;;;6249270;23;20302;-71
2021/10/18 13:47:46;;;;;;;8.75;5.13;;;17.10;78.40;;;;;;6222572;23;20007;-71
2021/10/18 13:50:14;;;;;;;8.77;4.85;;;17.10;78.70;;;;;;6249128;23;20058;-72
2021/10/18 13:52:41;;;;;;;10.25;5.38;;;17.40;77.70;;;;;;6249138;23;20008;-71
2021/10/18 13:55:07;;;;;;;9.73;5.70;;;17.40;77.60;;;;;;6249261;23;20054;-71